sensor_id;sensor_type;location;lat;lon;timestamp;P1;durP1;ratioP1;P2;durP2;ratioP2
40367;SDS011;26075;43.320;21.920;2023-04-25T00:04:41;3.17;;;1.23;;
40367;SDS011;26075;43.320;21.920;2023-04-25T00:09:42;2.40;;;0.90;;
40367;SDS011;26075;43.320;21.920;2023-04-25T00:14:43;2.05;;;0.80;;
40367;SDS011;26075;43.320;21.920;2023-04-25T00:19:45;3.80;;;1.05;;
40367;SDS011;26075;43.320;21.920;2023-04-25T00:24:47;3.13;;;1.00;;
40367;SDS011;26075;43.320;21.920;2023-04-25T00:29:48;3.60;;;0.95;;
40367;SDS011;26075;43.320;21.920;2023-04-25T00:34:56;3.38;;;1.10;;
40367;SDS011;26075;43.320;21.920;2023-04-25T00:39:58;4.28;;;0.88;;
40367;SDS011;26075;43.320;21.920;2023-04-25T00:44:59;2.72;;;1.20;;
40367;SDS011;26075;43.320;21.920;2023-04-25T00:50:00;2.70;;;1.02;;
40367;SDS011;26075;43.320;21.920;2023-04-25T00:55:12;4.45;;;1.25;;
40367;SDS011;26075;43.320;21.920;2023-04-25T01:00:13;3.15;;;1.10;;
40367;SDS011;26075;43.320;21.920;2023-04-25T01:05:14;3.00;;;1.27;;
40367;SDS011;26075;43.320;21.920;2023-04-25T01:10:16;3.72;;;1.40;;
40367;SDS011;26075;43.320;21.920;2023-04-25T01:15:17;4.38;;;1.20;;
40367;SDS011;26075;43.320;21.920;2023-04-25T01:20:18;3.65;;;1.35;;
40367;SDS011;26075;43.320;21.920;2023-04-25T01:25:22;4.60;;;1.10;;
40367;SDS011;26075;43.320;21.920;2023-04-25T01:30:24;2.83;;;1.55;;
40367;SDS011;26075;43.320;21.920;2023-04-25T01:35:26;6.13;;;1.40;;
40367;SDS011;26075;43.320;21.920;2023-04-25T01:46:02;2.75;;;1.00;;
40367;SDS011;26075;43.320;21.920;2023-04-25T01:51:04;2.80;;;0.95;;
40367;SDS011;26075;43.320;21.920;2023-04-25T01:56:10;4.20;;;1.23;;
40367;SDS011;26075;43.320;21.920;2023-04-25T02:07:07;2.83;;;1.38;;
40367;SDS011;26075;43.320;21.920;2023-04-25T02:12:09;3.25;;;1.30;;
40367;SDS011;26075;43.320;21.920;2023-04-25T02:17:10;2.78;;;1.30;;
40367;SDS011;26075;43.320;21.920;2023-04-25T02:22:12;4.15;;;1.35;;
40367;SDS011;26075;43.320;21.920;2023-04-25T02:27:13;4.15;;;1.27;;
40367;SDS011;26075;43.320;21.920;2023-04-25T02:32:15;2.85;;;1.10;;
40367;SDS011;26075;43.320;21.920;2023-04-25T02:53:51;5.45;;;2.80;;
40367;SDS011;26075;43.320;21.920;2023-04-25T02:58:52;5.47;;;2.13;;
40367;SDS011;26075;43.320;21.920;2023-04-25T03:03:53;5.40;;;2.10;;
40367;SDS011;26075;43.320;21.920;2023-04-25T03:08:54;3.80;;;1.85;;
40367;SDS011;26075;43.320;21.920;2023-04-25T03:13:55;4.18;;;2.03;;
40367;SDS011;26075;43.320;21.920;2023-04-25T03:18:56;4.15;;;2.05;;
40367;SDS011;26075;43.320;21.920;2023-04-25T03:23:58;6.20;;;2.22;;
40367;SDS011;26075;43.320;21.920;2023-04-25T03:28:59;7.07;;;2.42;;
40367;SDS011;26075;43.320;21.920;2023-04-25T03:34:00;3.15;;;1.80;;
40367;SDS011;26075;43.320;21.920;2023-04-25T03:44:58;5.57;;;2.13;;
40367;SDS011;26075;43.320;21.920;2023-04-25T03:49:59;6.45;;;4.70;;
40367;SDS011;26075;43.320;21.920;2023-04-25T03:55:03;6.78;;;5.38;;
40367;SDS011;26075;43.320;21.920;2023-04-25T04:05:36;9.52;;;3.72;;
40367;SDS011;26075;43.320;21.920;2023-04-25T04:10:40;6.15;;;3.15;;
40367;SDS011;26075;43.320;21.920;2023-04-25T04:15:41;6.47;;;2.35;;
40367;SDS011;26075;43.320;21.920;2023-04-25T04:20:42;5.43;;;3.05;;
40367;SDS011;26075;43.320;21.920;2023-04-25T04:25:43;6.28;;;3.25;;
40367;SDS011;26075;43.320;21.920;2023-04-25T04:30:44;11.70;;;4.00;;
40367;SDS011;26075;43.320;21.920;2023-04-25T04:41:11;8.93;;;3.65;;
40367;SDS011;26075;43.320;21.920;2023-04-25T04:52:09;12.05;;;4.85;;
40367;SDS011;26075;43.320;21.920;2023-04-25T04:57:10;16.02;;;4.28;;
40367;SDS011;26075;43.320;21.920;2023-04-25T05:02:11;13.02;;;4.90;;
40367;SDS011;26075;43.320;21.920;2023-04-25T05:07:12;10.25;;;4.28;;
40367;SDS011;26075;43.320;21.920;2023-04-25T05:12:13;7.47;;;3.60;;
40367;SDS011;26075;43.320;21.920;2023-04-25T05:17:14;10.82;;;4.35;;
40367;SDS011;26075;43.320;21.920;2023-04-25T05:22:15;9.07;;;4.35;;
40367;SDS011;26075;43.320;21.920;2023-04-25T05:27:17;11.02;;;4.68;;
40367;SDS011;26075;43.320;21.920;2023-04-25T05:32:18;18.40;;;6.93;;
40367;SDS011;26075;43.320;21.920;2023-04-25T05:37:19;17.38;;;7.07;;
40367;SDS011;26075;43.320;21.920;2023-04-25T05:42:20;15.60;;;7.47;;
40367;SDS011;26075;43.320;21.920;2023-04-25T05:47:22;18.73;;;7.40;;
40367;SDS011;26075;43.320;21.920;2023-04-25T05:52:23;16.15;;;6.53;;
40367;SDS011;26075;43.320;21.920;2023-04-25T05:57:25;15.55;;;6.53;;
40367;SDS011;26075;43.320;21.920;2023-04-25T06:02:26;12.65;;;5.47;;
40367;SDS011;26075;43.320;21.920;2023-04-25T06:07:28;12.00;;;4.88;;
40367;SDS011;26075;43.320;21.920;2023-04-25T06:12:29;9.27;;;4.32;;
40367;SDS011;26075;43.320;21.920;2023-04-25T06:17:30;10.45;;;4.82;;
40367;SDS011;26075;43.320;21.920;2023-04-25T06:22:31;9.68;;;4.53;;
40367;SDS011;26075;43.320;21.920;2023-04-25T06:27:33;13.52;;;4.80;;
40367;SDS011;26075;43.320;21.920;2023-04-25T06:32:34;13.52;;;4.90;;
40367;SDS011;26075;43.320;21.920;2023-04-25T06:37:35;13.05;;;5.10;;
40367;SDS011;26075;43.320;21.920;2023-04-25T06:42:36;11.07;;;5.80;;
40367;SDS011;26075;43.320;21.920;2023-04-25T06:47:37;7.47;;;3.05;;
40367;SDS011;26075;43.320;21.920;2023-04-25T06:52:38;6.10;;;3.85;;
40367;SDS011;26075;43.320;21.920;2023-04-25T06:57:39;8.35;;;4.03;;
40367;SDS011;26075;43.320;21.920;2023-04-25T07:02:40;9.45;;;4.38;;
40367;SDS011;26075;43.320;21.920;2023-04-25T07:07:43;9.18;;;4.80;;
40367;SDS011;26075;43.320;21.920;2023-04-25T07:12:44;9.40;;;4.88;;
40367;SDS011;26075;43.320;21.920;2023-04-25T07:17:50;11.25;;;4.70;;
40367;SDS011;26075;43.320;21.920;2023-04-25T07:22:51;12.40;;;4.65;;
40367;SDS011;26075;43.320;21.920;2023-04-25T07:27:53;11.88;;;4.55;;
40367;SDS011;26075;43.320;21.920;2023-04-25T07:32:54;7.25;;;3.90;;
40367;SDS011;26075;43.320;21.920;2023-04-25T07:38:05;8.82;;;4.40;;
40367;SDS011;26075;43.320;21.920;2023-04-25T07:43:07;8.48;;;3.53;;
40367;SDS011;26075;43.320;21.920;2023-04-25T07:48:07;12.88;;;4.03;;
40367;SDS011;26075;43.320;21.920;2023-04-25T07:53:08;8.18;;;3.38;;
40367;SDS011;26075;43.320;21.920;2023-04-25T07:58:10;13.35;;;3.15;;
40367;SDS011;26075;43.320;21.920;2023-04-25T08:03:11;11.82;;;2.92;;
40367;SDS011;26075;43.320;21.920;2023-04-25T08:08:12;6.45;;;2.33;;
40367;SDS011;26075;43.320;21.920;2023-04-25T08:13:13;7.97;;;2.35;;
40367;SDS011;26075;43.320;21.920;2023-04-25T08:18:16;4.93;;;2.00;;
40367;SDS011;26075;43.320;21.920;2023-04-25T08:23:18;5.28;;;1.85;;
40367;SDS011;26075;43.320;21.920;2023-04-25T08:28:26;6.28;;;2.00;;
40367;SDS011;26075;43.320;21.920;2023-04-25T08:33:27;4.38;;;1.83;;
40367;SDS011;26075;43.320;21.920;2023-04-25T08:38:28;5.28;;;2.10;;
40367;SDS011;26075;43.320;21.920;2023-04-25T08:43:29;5.72;;;2.05;;
40367;SDS011;26075;43.320;21.920;2023-04-25T08:48:42;5.43;;;1.92;;
40367;SDS011;26075;43.320;21.920;2023-04-25T08:53:44;6.93;;;2.03;;
40367;SDS011;26075;43.320;21.920;2023-04-25T08:58:49;5.22;;;1.75;;
40367;SDS011;26075;43.320;21.920;2023-04-25T09:03:53;5.47;;;1.95;;
40367;SDS011;26075;43.320;21.920;2023-04-25T09:09:07;4.05;;;2.15;;
40367;SDS011;26075;43.320;21.920;2023-04-25T09:14:13;5.47;;;2.50;;
40367;SDS011;26075;43.320;21.920;2023-04-25T09:19:25;4.75;;;1.90;;
40367;SDS011;26075;43.320;21.920;2023-04-25T09:24:43;8.32;;;2.50;;
40367;SDS011;26075;43.320;21.920;2023-04-25T09:29:46;4.97;;;2.90;;
40367;SDS011;26075;43.320;21.920;2023-04-25T09:34:49;5.03;;;2.53;;
40367;SDS011;26075;43.320;21.920;2023-04-25T09:39:56;6.57;;;2.93;;
40367;SDS011;26075;43.320;21.920;2023-04-25T09:45:04;4.25;;;1.85;;
40367;SDS011;26075;43.320;21.920;2023-04-25T09:50:05;5.43;;;2.42;;
40367;SDS011;26075;43.320;21.920;2023-04-25T09:55:17;5.78;;;1.98;;
40367;SDS011;26075;43.320;21.920;2023-04-25T10:00:18;4.18;;;2.05;;
40367;SDS011;26075;43.320;21.920;2023-04-25T10:05:21;5.82;;;2.40;;
40367;SDS011;26075;43.320;21.920;2023-04-25T10:10:27;4.55;;;2.38;;
40367;SDS011;26075;43.320;21.920;2023-04-25T10:15:30;3.58;;;1.70;;
40367;SDS011;26075;43.320;21.920;2023-04-25T10:26:05;6.90;;;2.25;;
40367;SDS011;26075;43.320;21.920;2023-04-25T10:31:07;5.10;;;1.88;;
40367;SDS011;26075;43.320;21.920;2023-04-25T10:36:18;5.18;;;1.55;;
40367;SDS011;26075;43.320;21.920;2023-04-25T10:52:11;4.70;;;2.13;;
40367;SDS011;26075;43.320;21.920;2023-04-25T11:03:09;7.97;;;3.80;;
40367;SDS011;26075;43.320;21.920;2023-04-25T11:08:17;8.82;;;5.20;;
40367;SDS011;26075;43.320;21.920;2023-04-25T11:13:34;8.55;;;5.55;;
40367;SDS011;26075;43.320;21.920;2023-04-25T11:18:35;11.00;;;6.15;;
40367;SDS011;26075;43.320;21.920;2023-04-25T11:28:59;12.82;;;6.70;;
40367;SDS011;26075;43.320;21.920;2023-04-25T11:34:00;9.80;;;6.43;;
40367;SDS011;26075;43.320;21.920;2023-04-25T11:39:02;7.82;;;6.97;;
40367;SDS011;26075;43.320;21.920;2023-04-25T11:44:03;7.63;;;6.82;;
40367;SDS011;26075;43.320;21.920;2023-04-25T11:49:05;11.07;;;7.85;;
40367;SDS011;26075;43.320;21.920;2023-04-25T11:54:06;9.27;;;6.40;;
40367;SDS011;26075;43.320;21.920;2023-04-25T11:59:07;9.27;;;7.28;;
40367;SDS011;26075;43.320;21.920;2023-04-25T12:04:24;9.02;;;7.10;;
40367;SDS011;26075;43.320;21.920;2023-04-25T12:09:30;11.27;;;6.78;;
40367;SDS011;26075;43.320;21.920;2023-04-25T12:14:45;8.50;;;6.15;;
40367;SDS011;26075;43.320;21.920;2023-04-25T12:19:48;10.07;;;6.65;;
40367;SDS011;26075;43.320;21.920;2023-04-25T12:24:51;8.07;;;7.28;;
40367;SDS011;26075;43.320;21.920;2023-04-25T12:29:54;10.05;;;7.20;;
40367;SDS011;26075;43.320;21.920;2023-04-25T12:34:57;6.63;;;6.03;;
40367;SDS011;26075;43.320;21.920;2023-04-25T12:39:57;6.30;;;5.68;;
40367;SDS011;26075;43.320;21.920;2023-04-25T12:44:58;7.43;;;5.72;;
40367;SDS011;26075;43.320;21.920;2023-04-25T12:49:59;6.47;;;5.63;;
40367;SDS011;26075;43.320;21.920;2023-04-25T12:55:02;7.60;;;5.15;;
40367;SDS011;26075;43.320;21.920;2023-04-25T13:00:04;5.03;;;4.35;;
40367;SDS011;26075;43.320;21.920;2023-04-25T13:05:07;5.22;;;4.40;;
40367;SDS011;26075;43.320;21.920;2023-04-25T13:10:08;11.07;;;5.47;;
40367;SDS011;26075;43.320;21.920;2023-04-25T13:15:10;6.63;;;4.95;;
40367;SDS011;26075;43.320;21.920;2023-04-25T13:20:11;5.93;;;4.72;;
40367;SDS011;26075;43.320;21.920;2023-04-25T13:25:13;6.25;;;4.88;;
40367;SDS011;26075;43.320;21.920;2023-04-25T13:30:15;8.43;;;5.15;;
40367;SDS011;26075;43.320;21.920;2023-04-25T13:35:16;9.13;;;5.03;;
40367;SDS011;26075;43.320;21.920;2023-04-25T13:40:17;7.05;;;4.63;;
40367;SDS011;26075;43.320;21.920;2023-04-25T13:45:25;10.85;;;6.38;;
40367;SDS011;26075;43.320;21.920;2023-04-25T13:50:26;7.88;;;5.10;;
40367;SDS011;26075;43.320;21.920;2023-04-25T13:55:27;6.88;;;5.05;;
40367;SDS011;26075;43.320;21.920;2023-04-25T14:00:28;7.63;;;4.90;;
40367;SDS011;26075;43.320;21.920;2023-04-25T14:05:31;6.40;;;4.38;;
40367;SDS011;26075;43.320;21.920;2023-04-25T14:10:36;7.25;;;5.15;;
40367;SDS011;26075;43.320;21.920;2023-04-25T14:15:37;6.13;;;5.38;;
40367;SDS011;26075;43.320;21.920;2023-04-25T14:25:58;12.30;;;8.07;;
40367;SDS011;26075;43.320;21.920;2023-04-25T14:31:04;11.10;;;7.93;;
40367;SDS011;26075;43.320;21.920;2023-04-25T14:36:05;11.02;;;8.43;;
40367;SDS011;26075;43.320;21.920;2023-04-25T14:41:06;8.88;;;7.15;;
40367;SDS011;26075;43.320;21.920;2023-04-25T14:46:08;8.75;;;7.18;;
40367;SDS011;26075;43.320;21.920;2023-04-25T14:51:09;9.35;;;7.50;;
40367;SDS011;26075;43.320;21.920;2023-04-25T14:56:09;7.75;;;6.72;;
40367;SDS011;26075;43.320;21.920;2023-04-25T15:01:10;10.68;;;7.63;;
40367;SDS011;26075;43.320;21.920;2023-04-25T15:06:12;11.35;;;7.95;;
40367;SDS011;26075;43.320;21.920;2023-04-25T15:11:14;13.13;;;9.73;;
40367;SDS011;26075;43.320;21.920;2023-04-25T15:16:16;14.10;;;9.93;;
40367;SDS011;26075;43.320;21.920;2023-04-25T15:21:17;15.18;;;11.65;;
40367;SDS011;26075;43.320;21.920;2023-04-25T15:26:18;17.38;;;13.15;;
40367;SDS011;26075;43.320;21.920;2023-04-25T15:31:18;18.70;;;15.18;;
40367;SDS011;26075;43.320;21.920;2023-04-25T15:36:24;14.40;;;11.30;;
40367;SDS011;26075;43.320;21.920;2023-04-25T15:46:26;13.65;;;9.38;;
40367;SDS011;26075;43.320;21.920;2023-04-25T15:51:27;10.63;;;8.82;;
40367;SDS011;26075;43.320;21.920;2023-04-25T15:56:28;10.63;;;8.50;;
40367;SDS011;26075;43.320;21.920;2023-04-25T16:01:29;10.18;;;7.85;;
40367;SDS011;26075;43.320;21.920;2023-04-25T16:06:31;9.88;;;8.40;;
40367;SDS011;26075;43.320;21.920;2023-04-25T16:11:32;16.83;;;8.60;;
40367;SDS011;26075;43.320;21.920;2023-04-25T16:16:32;8.73;;;7.13;;
40367;SDS011;26075;43.320;21.920;2023-04-25T16:21:33;8.20;;;6.97;;
40367;SDS011;26075;43.320;21.920;2023-04-25T16:26:35;17.08;;;11.40;;
40367;SDS011;26075;43.320;21.920;2023-04-25T16:31:36;13.35;;;8.80;;
40367;SDS011;26075;43.320;21.920;2023-04-25T16:36:45;15.40;;;11.43;;
40367;SDS011;26075;43.320;21.920;2023-04-25T16:41:46;17.83;;;12.60;;
40367;SDS011;26075;43.320;21.920;2023-04-25T16:52:08;23.55;;;17.77;;
40367;SDS011;26075;43.320;21.920;2023-04-25T16:57:11;21.08;;;13.90;;
40367;SDS011;26075;43.320;21.920;2023-04-25T17:07:56;16.30;;;13.40;;
40367;SDS011;26075;43.320;21.920;2023-04-25T17:12:57;17.27;;;13.13;;
40367;SDS011;26075;43.320;21.920;2023-04-25T17:17:58;14.82;;;11.50;;
40367;SDS011;26075;43.320;21.920;2023-04-25T17:23:10;13.38;;;11.25;;
40367;SDS011;26075;43.320;21.920;2023-04-25T17:28:11;19.98;;;14.45;;
40367;SDS011;26075;43.320;21.920;2023-04-25T17:33:12;20.02;;;15.23;;
40367;SDS011;26075;43.320;21.920;2023-04-25T17:38:13;18.08;;;12.80;;
40367;SDS011;26075;43.320;21.920;2023-04-25T17:43:14;15.95;;;12.55;;
40367;SDS011;26075;43.320;21.920;2023-04-25T17:48:17;19.02;;;14.38;;
40367;SDS011;26075;43.320;21.920;2023-04-25T17:53:18;16.48;;;11.63;;
40367;SDS011;26075;43.320;21.920;2023-04-25T17:58:19;19.42;;;13.98;;
40367;SDS011;26075;43.320;21.920;2023-04-25T18:03:21;22.77;;;16.38;;
40367;SDS011;26075;43.320;21.920;2023-04-25T18:08:23;24.77;;;16.25;;
40367;SDS011;26075;43.320;21.920;2023-04-25T18:13:24;20.25;;;11.52;;
40367;SDS011;26075;43.320;21.920;2023-04-25T18:18:25;16.27;;;12.20;;
40367;SDS011;26075;43.320;21.920;2023-04-25T18:23:32;18.08;;;13.57;;
40367;SDS011;26075;43.320;21.920;2023-04-25T18:28:33;20.00;;;14.80;;
40367;SDS011;26075;43.320;21.920;2023-04-25T18:33:34;19.33;;;14.50;;
40367;SDS011;26075;43.320;21.920;2023-04-25T18:44:00;24.50;;;18.67;;
40367;SDS011;26075;43.320;21.920;2023-04-25T18:49:02;27.55;;;19.17;;
40367;SDS011;26075;43.320;21.920;2023-04-25T18:54:03;27.65;;;20.63;;
40367;SDS011;26075;43.320;21.920;2023-04-25T18:59:07;36.83;;;24.88;;
40367;SDS011;26075;43.320;21.920;2023-04-25T19:04:08;37.85;;;26.80;;
40367;SDS011;26075;43.320;21.920;2023-04-25T19:09:09;37.83;;;26.17;;
40367;SDS011;26075;43.320;21.920;2023-04-25T19:14:12;36.80;;;25.25;;
40367;SDS011;26075;43.320;21.920;2023-04-25T19:19:13;28.83;;;21.55;;
40367;SDS011;26075;43.320;21.920;2023-04-25T19:24:14;29.60;;;22.55;;
40367;SDS011;26075;43.320;21.920;2023-04-25T19:29:15;29.10;;;22.23;;
40367;SDS011;26075;43.320;21.920;2023-04-25T19:34:17;36.35;;;25.17;;
40367;SDS011;26075;43.320;21.920;2023-04-25T19:39:18;32.28;;;21.95;;
40367;SDS011;26075;43.320;21.920;2023-04-25T19:44:19;28.48;;;20.58;;
40367;SDS011;26075;43.320;21.920;2023-04-25T19:49:20;27.33;;;19.58;;
40367;SDS011;26075;43.320;21.920;2023-04-25T19:54:21;31.85;;;23.48;;
40367;SDS011;26075;43.320;21.920;2023-04-25T19:59:22;36.30;;;24.83;;
40367;SDS011;26075;43.320;21.920;2023-04-25T20:04:23;32.50;;;23.40;;
40367;SDS011;26075;43.320;21.920;2023-04-25T20:09:25;29.52;;;24.10;;
40367;SDS011;26075;43.320;21.920;2023-04-25T20:14:26;32.03;;;23.20;;
40367;SDS011;26075;43.320;21.920;2023-04-25T20:19:27;32.72;;;24.17;;
40367;SDS011;26075;43.320;21.920;2023-04-25T20:24:28;36.05;;;26.15;;
40367;SDS011;26075;43.320;21.920;2023-04-25T20:29:29;36.13;;;25.77;;
40367;SDS011;26075;43.320;21.920;2023-04-25T20:34:30;35.20;;;25.73;;
40367;SDS011;26075;43.320;21.920;2023-04-25T20:45:24;36.00;;;27.88;;
40367;SDS011;26075;43.320;21.920;2023-04-25T21:02:19;30.17;;;22.38;;
40367;SDS011;26075;43.320;21.920;2023-04-25T21:13:17;37.17;;;23.02;;
40367;SDS011;26075;43.320;21.920;2023-04-25T21:18:18;34.80;;;23.45;;
40367;SDS011;26075;43.320;21.920;2023-04-25T21:23:19;27.42;;;21.85;;
40367;SDS011;26075;43.320;21.920;2023-04-25T21:34:17;20.25;;;12.20;;
40367;SDS011;26075;43.320;21.920;2023-04-25T21:39:18;23.50;;;13.75;;
40367;SDS011;26075;43.320;21.920;2023-04-25T21:44:19;24.25;;;15.82;;
40367;SDS011;26075;43.320;21.920;2023-04-25T21:49:20;30.88;;;24.00;;
40367;SDS011;26075;43.320;21.920;2023-04-25T21:54:24;23.10;;;18.07;;
40367;SDS011;26075;43.320;21.920;2023-04-25T21:59:26;22.42;;;16.20;;
40367;SDS011;26075;43.320;21.920;2023-04-25T22:04:27;20.48;;;15.07;;
40367;SDS011;26075;43.320;21.920;2023-04-25T22:20:26;20.15;;;14.98;;
40367;SDS011;26075;43.320;21.920;2023-04-25T22:25:45;17.20;;;13.68;;
40367;SDS011;26075;43.320;21.920;2023-04-25T22:30:46;20.92;;;13.73;;
40367;SDS011;26075;43.320;21.920;2023-04-25T22:36:02;17.60;;;14.18;;
40367;SDS011;26075;43.320;21.920;2023-04-25T22:41:04;18.02;;;14.23;;
40367;SDS011;26075;43.320;21.920;2023-04-25T22:46:05;18.13;;;13.93;;
40367;SDS011;26075;43.320;21.920;2023-04-25T22:51:06;16.48;;;13.32;;
40367;SDS011;26075;43.320;21.920;2023-04-25T22:56:07;16.35;;;13.57;;
40367;SDS011;26075;43.320;21.920;2023-04-25T23:07:05;20.10;;;15.90;;
40367;SDS011;26075;43.320;21.920;2023-04-25T23:12:07;22.08;;;15.02;;
40367;SDS011;26075;43.320;21.920;2023-04-25T23:17:08;17.88;;;13.48;;
40367;SDS011;26075;43.320;21.920;2023-04-25T23:22:10;19.75;;;15.30;;
40367;SDS011;26075;43.320;21.920;2023-04-25T23:27:11;17.02;;;13.18;;
40367;SDS011;26075;43.320;21.920;2023-04-25T23:32:12;13.57;;;11.43;;
40367;SDS011;26075;43.320;21.920;2023-04-25T23:37:13;15.40;;;11.18;;
40367;SDS011;26075;43.320;21.920;2023-04-25T23:42:15;13.02;;;11.45;;
40367;SDS011;26075;43.320;21.920;2023-04-25T23:47:16;15.98;;;11.25;;
40367;SDS011;26075;43.320;21.920;2023-04-25T23:52:18;14.85;;;10.23;;
40367;SDS011;26075;43.320;21.920;2023-04-25T23:57:19;15.55;;;10.90;;
